createdAt,value
2023-04-05T00:01:34.689Z,5.97
2023-04-05T00:04:03.784Z,5.90
2023-04-05T00:06:34.441Z,6.00
2023-04-05T00:09:04.783Z,5.10
2023-04-05T00:11:34.230Z,6.40
2023-04-05T00:14:03.941Z,6.60
2023-04-05T00:16:32.548Z,6.43
2023-04-05T00:19:02.136Z,6.53
2023-04-05T00:21:30.459Z,6.83
2023-04-05T00:24:01.428Z,6.43
2023-04-05T00:26:29.720Z,5.93
2023-04-05T00:28:59.728Z,6.80
2023-04-05T00:31:27.979Z,6.97
2023-04-05T00:33:56.714Z,7.27
2023-04-05T00:36:25.079Z,9.40
2023-04-05T00:38:53.613Z,9.40
2023-04-05T00:41:23.397Z,10.63
2023-04-05T00:43:52.491Z,9.97
2023-04-05T00:46:21.502Z,8.97
2023-04-05T00:48:50.911Z,8.13
2023-04-05T00:51:20.252Z,7.90
2023-04-05T00:53:52.807Z,7.80
2023-04-05T00:56:22.644Z,7.57
2023-04-05T00:58:53.264Z,7.97
2023-04-05T01:01:23.837Z,7.40
2023-04-05T01:03:54.983Z,7.50
2023-04-05T01:06:38.077Z,7.50
2023-04-05T01:09:11.581Z,7.67
2023-04-05T01:11:41.437Z,7.50
2023-04-05T01:14:11.263Z,7.10
2023-04-05T01:16:39.661Z,6.77
2023-04-05T01:19:09.982Z,6.90
2023-04-05T01:22:21.955Z,7.00
2023-04-05T01:25:19.894Z,5.93
2023-04-05T01:28:06.623Z,8.03
2023-04-05T01:30:40.093Z,6.80
2023-04-05T01:33:16.377Z,6.73
2023-04-05T01:35:53.183Z,8.57
2023-04-05T01:38:25.886Z,7.77
2023-04-05T01:40:55.502Z,8.33
2023-04-05T01:43:24.221Z,8.93
2023-04-05T01:45:54.929Z,7.43
2023-04-05T01:48:23.393Z,7.60
2023-04-05T01:50:51.787Z,8.93
2023-04-05T01:53:20.326Z,9.07
2023-04-05T01:55:48.762Z,9.97
2023-04-05T01:58:17.044Z,13.47
2023-04-05T02:00:45.852Z,11.53
2023-04-05T02:03:15.572Z,11.17
2023-04-05T02:05:44.283Z,15.20
2023-04-05T02:08:13.309Z,13.40
2023-04-05T02:10:43.123Z,12.27
2023-04-05T02:13:11.579Z,12.20
2023-04-05T02:15:40.418Z,11.00
2023-04-05T02:18:09.438Z,11.43
2023-04-05T02:20:39.667Z,12.60
2023-04-05T02:23:08.365Z,11.93
2023-04-05T02:25:36.927Z,11.00
2023-04-05T02:28:06.301Z,11.57
2023-04-05T02:30:35.261Z,11.60
2023-04-05T02:33:04.021Z,10.83
2023-04-05T02:35:32.577Z,14.67
2023-04-05T02:38:02.614Z,14.77
2023-04-05T02:40:31.108Z,14.73
2023-04-05T02:43:01.003Z,12.97
2023-04-05T02:45:29.807Z,12.13
2023-04-05T02:48:00.340Z,11.00
2023-04-05T02:50:32.502Z,13.53
2023-04-05T02:53:02.387Z,13.60
2023-04-05T02:55:34.040Z,12.00
2023-04-05T02:58:03.566Z,12.73
2023-04-05T03:00:50.992Z,12.83
2023-04-05T03:03:24.582Z,13.97
2023-04-05T03:06:00.412Z,13.80
2023-04-05T03:08:33.227Z,13.00
2023-04-05T03:11:06.122Z,13.13
2023-04-05T03:13:36.002Z,13.23
2023-04-05T03:16:07.920Z,13.27
2023-04-05T03:18:37.480Z,13.27
2023-04-05T03:21:12.351Z,11.40
2023-04-05T03:23:53.183Z,10.73
2023-04-05T03:26:28.192Z,11.43
2023-04-05T03:28:56.612Z,11.53
2023-04-05T03:31:32.019Z,10.83
2023-04-05T03:34:04.245Z,10.97
2023-04-05T03:36:43.424Z,9.97
2023-04-05T03:39:34.696Z,10.47
2023-04-05T03:42:03.642Z,11.33
2023-04-05T03:44:32.161Z,10.93
2023-04-05T03:47:01.182Z,11.67
2023-04-05T03:49:31.838Z,9.13
2023-04-05T03:52:00.669Z,10.77
2023-04-05T03:54:28.944Z,11.20
2023-04-05T03:57:02.311Z,12.23
2023-04-05T03:59:32.043Z,13.67
2023-04-05T04:02:03.911Z,13.50
2023-04-05T04:04:33.224Z,12.80
2023-04-05T04:07:02.176Z,14.63
2023-04-05T04:09:31.565Z,14.97
2023-04-05T04:12:08.882Z,14.43
2023-04-05T04:14:42.727Z,14.97
2023-04-05T04:17:33.124Z,13.93
2023-04-05T04:20:27.648Z,14.70
2023-04-05T04:23:10.085Z,13.00
2023-04-05T04:25:57.055Z,12.30
2023-04-05T04:28:58.952Z,11.67
2023-04-05T04:31:50.795Z,13.83
2023-04-05T04:34:44.713Z,14.63
2023-04-05T04:37:37.570Z,15.43
2023-04-05T04:40:38.707Z,15.67
2023-04-05T04:43:37.289Z,13.37
2023-04-05T04:46:19.134Z,11.70
2023-04-05T04:49:17.184Z,11.23
2023-04-05T04:51:50.593Z,13.50
2023-04-05T04:54:22.361Z,13.20
2023-04-05T04:56:50.984Z,15.53
2023-04-05T04:59:19.337Z,12.80
2023-04-05T05:01:49.335Z,14.60
2023-04-05T05:04:17.609Z,12.23
2023-04-05T05:06:46.864Z,12.73
2023-04-05T05:09:15.339Z,13.27
2023-04-05T05:11:51.647Z,14.07
2023-04-05T05:14:20.081Z,13.53
2023-04-05T05:16:49.977Z,14.63
2023-04-05T05:19:21.001Z,14.77
2023-04-05T05:21:54.033Z,14.97
2023-04-05T05:24:22.530Z,13.97
2023-04-05T05:26:51.312Z,15.37
2023-04-05T05:29:21.112Z,13.53
2023-04-05T05:31:52.486Z,13.63
2023-04-05T05:34:21.952Z,11.77
2023-04-05T05:36:53.611Z,10.87
2023-04-05T05:39:23.574Z,11.17
2023-04-05T05:41:52.234Z,10.10
2023-04-05T05:44:20.598Z,12.07
2023-04-05T05:46:49.107Z,13.50
2023-04-05T05:49:18.930Z,11.77
2023-04-05T05:51:47.557Z,13.20
2023-04-05T05:54:15.787Z,14.03
2023-04-05T05:56:44.303Z,17.37
2023-04-05T05:59:13.080Z,13.07
2023-04-05T06:01:46.464Z,12.80
2023-04-05T06:04:16.532Z,12.23
2023-04-05T06:06:47.791Z,12.40
2023-04-05T06:09:16.555Z,12.20
2023-04-05T06:11:55.969Z,11.87
2023-04-05T06:14:25.890Z,12.23
2023-04-05T06:16:54.573Z,12.63
2023-04-05T06:19:23.140Z,10.77
2023-04-05T06:21:53.023Z,10.73
2023-04-05T06:24:21.467Z,9.73
2023-04-05T06:26:51.909Z,9.77
2023-04-05T06:29:20.338Z,8.00
2023-04-05T06:31:48.965Z,7.33
2023-04-05T06:34:17.209Z,8.13
2023-04-05T06:36:46.784Z,7.17
2023-04-05T06:39:16.898Z,8.00
2023-04-05T06:41:45.481Z,7.50
2023-04-05T06:44:13.780Z,7.57
2023-04-05T06:46:42.387Z,8.37
2023-04-05T06:49:10.746Z,7.93
2023-04-05T06:51:39.352Z,7.87
2023-04-05T06:54:07.644Z,8.33
2023-04-05T06:56:38.984Z,7.10
2023-04-05T06:59:07.327Z,8.20
2023-04-05T07:01:35.917Z,7.83
2023-04-05T07:04:04.456Z,8.87
2023-04-05T07:06:34.606Z,8.17
2023-04-05T07:09:03.310Z,7.67
2023-04-05T07:11:32.790Z,7.60
2023-04-05T07:14:02.512Z,6.80
2023-04-05T07:16:31.166Z,8.20
2023-04-05T07:18:59.504Z,6.50
2023-04-05T07:21:28.154Z,6.97
2023-04-05T07:24:00.695Z,6.70
2023-04-05T07:26:29.317Z,7.37
2023-04-05T07:28:57.950Z,7.17
2023-04-05T07:31:27.925Z,6.80
2023-04-05T07:33:56.214Z,6.90
2023-04-05T07:36:24.785Z,7.47
2023-04-05T07:38:53.112Z,8.20
2023-04-05T07:41:23.617Z,7.17
2023-04-05T07:43:52.051Z,7.47
2023-04-05T07:46:20.901Z,7.27
2023-04-05T07:48:50.819Z,8.03
2023-04-05T07:51:19.439Z,7.37
2023-04-05T07:53:48.964Z,8.37
2023-04-05T07:56:17.514Z,7.63
2023-04-05T07:58:46.133Z,6.77
2023-04-05T08:01:14.763Z,8.63
2023-04-05T08:03:43.991Z,7.37
2023-04-05T08:06:15.267Z,7.77
2023-04-05T08:08:43.426Z,8.03
2023-04-05T08:11:12.368Z,7.40
2023-04-05T08:13:41.916Z,7.00
2023-04-05T08:16:11.093Z,7.60
2023-04-05T08:18:39.760Z,7.77
2023-04-05T08:21:08.264Z,8.03
2023-04-05T08:23:38.586Z,7.83
2023-04-05T08:26:07.784Z,7.30
2023-04-05T08:28:36.250Z,7.07
2023-04-05T08:31:04.840Z,8.83
2023-04-05T08:33:33.332Z,6.80
2023-04-05T08:36:06.250Z,7.90
2023-04-05T08:38:34.689Z,8.43
2023-04-05T08:41:19.192Z,7.87
2023-04-05T08:43:57.552Z,8.27
2023-04-05T08:46:27.070Z,7.63
2023-04-05T08:48:56.324Z,7.43
2023-04-05T08:51:26.148Z,7.47
2023-04-05T08:53:55.352Z,7.13
2023-04-05T08:56:28.264Z,6.13
2023-04-05T08:59:02.906Z,8.63
2023-04-05T09:01:33.037Z,6.47
2023-04-05T09:04:03.404Z,6.50
2023-04-05T09:06:32.283Z,7.10
2023-04-05T09:09:00.672Z,5.87
2023-04-05T09:11:31.056Z,6.80
2023-04-05T09:13:59.421Z,7.37
2023-04-05T09:16:28.368Z,7.00
2023-04-05T09:18:56.726Z,6.57
2023-04-05T09:21:25.342Z,8.13
2023-04-05T09:23:55.792Z,7.43
2023-04-05T09:26:26.380Z,7.63
2023-04-05T09:29:00.468Z,8.17
2023-04-05T09:31:33.118Z,7.97
2023-04-05T09:34:03.639Z,6.97
2023-04-05T09:36:34.740Z,9.63
2023-04-05T09:39:07.940Z,9.10
2023-04-05T09:41:37.585Z,9.30
2023-04-05T09:44:07.433Z,8.10
2023-04-05T09:46:38.563Z,7.87
2023-04-05T09:49:10.183Z,8.07
2023-04-05T09:51:40.397Z,12.27
2023-04-05T09:54:12.744Z,8.60
2023-04-05T09:56:54.348Z,9.27
2023-04-05T09:59:24.184Z,9.43
2023-04-05T10:01:53.178Z,9.37
2023-04-05T10:04:23.167Z,10.07
2023-04-05T10:06:51.771Z,8.10
2023-04-05T10:09:20.851Z,8.67
2023-04-05T10:11:49.678Z,8.97
2023-04-05T10:14:18.001Z,9.17
2023-04-05T10:16:57.158Z,7.07
2023-04-05T10:19:30.804Z,8.47
2023-04-05T10:22:03.389Z,8.63
2023-04-05T10:24:37.628Z,8.03
2023-04-05T10:27:10.055Z,8.00
2023-04-05T10:29:57.564Z,7.40
2023-04-05T10:32:36.243Z,6.97
2023-04-05T10:35:11.279Z,8.30
2023-04-05T10:37:52.901Z,7.33
2023-04-05T10:40:23.099Z,7.77
2023-04-05T10:42:52.028Z,6.67
2023-04-05T10:45:22.429Z,8.07
2023-04-05T10:47:59.054Z,7.60
2023-04-05T10:50:27.378Z,8.00
2023-04-05T10:52:57.364Z,8.17
2023-04-05T10:55:25.971Z,8.77
2023-04-05T10:57:56.610Z,8.30
2023-04-05T11:00:25.344Z,7.33
2023-04-05T11:02:57.119Z,7.90
2023-04-05T11:05:33.700Z,6.10
2023-04-05T11:08:06.072Z,7.03
2023-04-05T11:10:37.782Z,7.87
2023-04-05T11:13:10.901Z,7.63
2023-04-05T11:15:39.916Z,7.13
2023-04-05T11:18:11.902Z,6.63
2023-04-05T11:20:45.427Z,6.83
2023-04-05T11:23:15.925Z,6.90
2023-04-05T11:25:51.002Z,6.10
2023-04-05T11:28:29.307Z,6.43
2023-04-05T11:30:59.083Z,6.20
2023-04-05T11:33:58.638Z,7.80
2023-04-05T11:36:38.179Z,6.57
2023-04-05T11:39:28.860Z,8.17
2023-04-05T11:42:02.442Z,6.70
2023-04-05T11:44:40.184Z,7.17
2023-04-05T11:47:08.817Z,6.27
2023-04-05T11:49:40.057Z,7.03
2023-04-05T11:52:12.974Z,7.37
2023-04-05T11:54:46.318Z,6.40
2023-04-05T11:57:17.299Z,7.47
2023-04-05T11:59:46.611Z,6.60
2023-04-05T12:02:14.909Z,6.57
2023-04-05T12:04:44.934Z,6.27
2023-04-05T12:07:15.817Z,6.47
2023-04-05T12:10:07.281Z,6.33
2023-04-05T12:12:38.472Z,6.53
2023-04-05T12:15:10.658Z,6.10
2023-04-05T12:17:44.087Z,7.40
2023-04-05T12:20:15.718Z,6.50
2023-04-05T12:22:45.832Z,5.97
2023-04-05T12:25:14.835Z,6.43
2023-04-05T12:27:43.535Z,8.07
2023-04-05T12:30:18.051Z,7.50
2023-04-05T12:32:47.996Z,6.07
2023-04-05T12:35:22.726Z,6.50
2023-04-05T12:37:52.296Z,7.77
2023-04-05T12:40:23.338Z,6.03
2023-04-05T12:42:52.047Z,6.83
2023-04-05T12:45:24.281Z,7.37
2023-04-05T12:47:54.137Z,6.43
2023-04-05T12:50:28.979Z,7.00
2023-04-05T12:52:59.090Z,6.77
2023-04-05T12:55:28.735Z,6.07
2023-04-05T12:57:59.584Z,6.47
2023-04-05T13:00:30.903Z,6.23
2023-04-05T13:03:00.681Z,5.57
2023-04-05T13:05:33.242Z,5.80
2023-04-05T13:08:01.431Z,6.27
2023-04-05T13:10:33.285Z,5.93
2023-04-05T13:13:01.427Z,6.20
2023-04-05T13:15:30.055Z,6.73
2023-04-05T13:17:59.133Z,6.10
2023-04-05T13:20:27.942Z,5.93
2023-04-05T13:22:57.568Z,6.83
2023-04-05T13:25:26.500Z,5.77
2023-04-05T13:27:55.062Z,5.83
2023-04-05T13:30:23.765Z,5.30
2023-04-05T13:32:52.200Z,5.40
2023-04-05T13:35:21.212Z,5.90
2023-04-05T13:37:50.268Z,6.23
2023-04-05T13:40:20.254Z,6.57
2023-04-05T13:42:49.102Z,6.57
2023-04-05T13:45:17.827Z,5.50
2023-04-05T13:47:46.222Z,6.73
2023-04-05T13:50:15.543Z,4.87
2023-04-05T13:52:44.249Z,5.23
2023-04-05T13:55:12.925Z,5.43
2023-04-05T13:57:42.511Z,5.77
2023-04-05T14:00:12.356Z,6.07
2023-04-05T14:02:41.165Z,5.43
2023-04-05T14:05:10.252Z,6.00
2023-04-05T14:07:38.815Z,6.43
2023-04-05T14:10:08.084Z,5.27
2023-04-05T14:12:37.171Z,5.40
2023-04-05T14:15:08.680Z,5.33
2023-04-05T14:17:37.103Z,5.20
2023-04-05T14:20:06.585Z,5.60
2023-04-05T14:22:37.667Z,10.30
2023-04-05T14:25:08.296Z,9.80
2023-04-05T14:27:41.315Z,5.63
2023-04-05T14:30:12.522Z,6.03
2023-04-05T14:32:40.939Z,5.33
2023-04-05T14:35:10.596Z,5.37
2023-04-05T14:37:39.103Z,5.33
2023-04-05T14:40:08.612Z,4.73
2023-04-05T14:42:47.866Z,5.03
2023-04-05T14:45:19.763Z,5.43
2023-04-05T14:47:48.180Z,5.43
2023-04-05T14:50:16.918Z,4.80
2023-04-05T14:52:45.650Z,5.20
2023-04-05T14:55:15.363Z,5.03
2023-04-05T14:57:44.117Z,5.07
2023-04-05T15:00:14.990Z,5.67
2023-04-05T15:02:46.730Z,4.80
2023-04-05T15:05:15.518Z,5.80
2023-04-05T15:07:43.868Z,5.43
2023-04-05T15:10:13.199Z,5.10
2023-04-05T15:12:41.557Z,5.10
2023-04-05T15:15:10.981Z,5.07
2023-04-05T15:17:39.335Z,4.10
2023-04-05T15:20:10.315Z,5.53
2023-04-05T15:22:40.920Z,5.67
2023-04-05T15:25:10.944Z,5.40
2023-04-05T15:27:39.467Z,5.57
2023-04-05T15:30:09.211Z,5.00
2023-04-05T15:32:38.265Z,5.00
2023-04-05T15:35:07.587Z,4.90
2023-04-05T15:37:37.174Z,6.10
2023-04-05T15:40:06.629Z,4.60
2023-04-05T15:42:35.362Z,4.87
2023-04-05T15:45:04.169Z,4.67
2023-04-05T15:47:32.677Z,4.33
2023-04-05T15:50:01.369Z,5.10
2023-04-05T15:52:29.648Z,6.03
2023-04-05T15:54:59.658Z,4.53
2023-04-05T15:57:28.170Z,4.90
2023-04-05T15:59:56.872Z,4.90
2023-04-05T16:02:25.375Z,4.77
2023-04-05T16:04:54.060Z,4.57
2023-04-05T16:07:22.614Z,4.57
2023-04-05T16:09:51.488Z,3.73
2023-04-05T16:12:21.180Z,4.43
2023-04-05T16:14:49.905Z,5.57
2023-04-05T16:17:18.411Z,4.73
2023-04-05T16:19:47.041Z,4.87
2023-04-05T16:22:15.539Z,5.23
2023-04-05T16:24:44.671Z,4.90
2023-04-05T16:27:13.554Z,4.90
2023-04-05T16:29:43.489Z,5.33
2023-04-05T16:32:11.954Z,5.40
2023-04-05T16:34:41.395Z,4.63
2023-04-05T16:37:09.783Z,4.93
2023-04-05T16:39:38.425Z,5.70
2023-04-05T16:42:07.943Z,4.80
2023-04-05T16:44:36.726Z,5.37
2023-04-05T16:47:06.459Z,5.73
2023-04-05T16:49:35.176Z,4.87
2023-04-05T16:52:03.471Z,4.57
2023-04-05T16:54:32.611Z,4.57
2023-04-05T16:57:00.985Z,4.53
2023-04-05T16:59:30.062Z,4.13
2023-04-05T17:01:59.170Z,4.60
2023-04-05T17:04:29.055Z,3.77
2023-04-05T17:06:57.437Z,4.27
2023-04-05T17:09:29.015Z,4.60
2023-04-05T17:11:57.372Z,4.03
2023-04-05T17:14:26.822Z,4.27
2023-04-05T17:16:56.143Z,8.77
2023-04-05T17:19:25.130Z,6.33
2023-04-05T17:21:55.780Z,5.83
2023-04-05T17:24:26.889Z,5.63
2023-04-05T17:26:55.156Z,5.07
2023-04-05T17:29:23.725Z,5.10
2023-04-05T17:31:52.163Z,5.40
2023-04-05T17:34:20.753Z,4.73
2023-04-05T17:36:49.168Z,5.37
2023-04-05T17:39:19.180Z,6.00
2023-04-05T17:41:47.578Z,5.63
2023-04-05T17:44:16.408Z,5.57
2023-04-05T17:46:48.725Z,5.53
2023-04-05T17:49:19.975Z,5.43
2023-04-05T17:51:48.539Z,9.83
2023-04-05T17:54:18.971Z,6.10
2023-04-05T17:56:47.327Z,5.77
2023-04-05T17:59:16.114Z,6.03
2023-04-05T18:01:44.557Z,5.77
2023-04-05T18:04:13.228Z,5.00
2023-04-05T18:06:43.669Z,5.60
2023-04-05T18:09:19.116Z,5.17
2023-04-05T18:11:53.375Z,5.40
2023-04-05T18:14:31.406Z,5.70
2023-04-05T18:17:00.390Z,6.07
2023-04-05T18:19:31.629Z,6.47
2023-04-05T18:22:02.813Z,6.70
2023-04-05T18:24:45.334Z,6.93
2023-04-05T18:27:15.328Z,7.67
2023-04-05T18:29:48.795Z,8.27
2023-04-05T18:32:20.857Z,8.53
2023-04-05T18:34:50.071Z,8.87
2023-04-05T18:37:18.348Z,8.63
2023-04-05T18:39:47.141Z,9.67
2023-04-05T18:42:16.956Z,9.27
2023-04-05T18:44:51.152Z,9.83
2023-04-05T18:47:26.562Z,9.30
2023-04-05T18:49:58.500Z,9.83
2023-04-05T18:52:29.329Z,8.90
2023-04-05T18:54:58.599Z,7.40
2023-04-05T18:57:30.377Z,10.30
2023-04-05T18:59:59.329Z,12.43
2023-04-05T19:02:31.380Z,9.73
2023-04-05T19:05:01.106Z,7.20
2023-04-05T19:07:29.462Z,7.67
2023-04-05T19:10:06.440Z,7.93
2023-04-05T19:12:36.247Z,8.03
2023-04-05T19:15:11.538Z,9.27
2023-04-05T19:17:47.393Z,11.17
2023-04-05T19:20:16.372Z,8.97
2023-04-05T19:22:44.753Z,10.07
2023-04-05T19:25:15.465Z,11.07
2023-04-05T19:27:50.329Z,10.43
2023-04-05T19:30:19.229Z,10.97
2023-04-05T19:32:47.663Z,11.07
2023-04-05T19:35:16.418Z,9.93
2023-04-05T19:37:47.883Z,9.53
2023-04-05T19:40:19.390Z,8.73
2023-04-05T19:42:53.396Z,8.07
2023-04-05T19:45:25.917Z,8.97
2023-04-05T19:47:58.455Z,7.83
2023-04-05T19:51:06.750Z,8.30
2023-04-05T19:53:44.193Z,8.33
2023-04-05T19:56:16.364Z,6.67
2023-04-05T19:58:51.311Z,8.13
2023-04-05T20:01:32.490Z,6.77
2023-04-05T20:04:01.901Z,8.13
2023-04-05T20:06:34.628Z,6.90
2023-04-05T20:09:05.771Z,7.20
2023-04-05T20:11:35.639Z,6.37
2023-04-05T20:14:09.826Z,6.90
2023-04-05T20:16:39.070Z,7.80
2023-04-05T20:19:09.356Z,7.20
2023-04-05T20:21:39.228Z,6.90
2023-04-05T20:24:09.771Z,6.67
2023-04-05T20:26:38.476Z,7.23
2023-04-05T20:29:11.986Z,6.40
2023-04-05T20:31:41.190Z,7.07
2023-04-05T20:34:11.265Z,5.77
2023-04-05T20:36:45.346Z,6.20
2023-04-05T20:39:13.685Z,7.20
2023-04-05T20:41:42.710Z,6.03
2023-04-05T20:44:12.443Z,5.73
2023-04-05T20:46:41.154Z,7.10
2023-04-05T20:49:09.823Z,5.80
2023-04-05T20:51:41.836Z,6.33
2023-04-05T20:54:11.517Z,6.63
2023-04-05T20:56:40.989Z,7.13
2023-04-05T20:59:09.606Z,6.23
2023-04-05T21:01:40.199Z,11.00
2023-04-05T21:04:08.841Z,6.83
2023-04-05T21:06:37.819Z,6.90
2023-04-05T21:09:06.611Z,8.23
2023-04-05T21:11:35.577Z,8.07
2023-04-05T21:14:03.969Z,8.23
2023-04-05T21:16:32.606Z,7.93
2023-04-05T21:19:02.503Z,8.73
2023-04-05T21:21:31.311Z,7.63
2023-04-05T21:23:59.709Z,7.83
2023-04-05T21:26:28.407Z,8.50
2023-04-05T21:28:56.667Z,8.27
2023-04-05T21:31:25.636Z,8.70
2023-04-05T21:33:53.974Z,8.70
2023-04-05T21:36:24.064Z,8.43
2023-04-05T21:38:52.656Z,7.87
2023-04-05T21:41:21.170Z,9.20
2023-04-05T21:43:49.551Z,8.00
2023-04-05T21:46:20.454Z,9.40
2023-04-05T21:48:49.355Z,7.63
2023-04-05T21:51:17.889Z,8.13
2023-04-05T21:53:48.057Z,7.90
2023-04-05T21:56:16.765Z,8.33
2023-04-05T21:58:45.052Z,7.10
2023-04-05T22:01:14.224Z,8.00
2023-04-05T22:03:42.735Z,9.23
2023-04-05T22:06:11.580Z,8.07
2023-04-05T22:08:39.804Z,7.70
2023-04-05T22:11:09.965Z,8.07
2023-04-05T22:13:38.554Z,8.13
2023-04-05T22:16:07.621Z,8.87
2023-04-05T22:18:36.216Z,9.03
2023-04-05T22:21:05.034Z,9.07
2023-04-05T22:23:33.286Z,8.80
2023-04-05T22:26:01.931Z,7.83
2023-04-05T22:28:32.842Z,8.23
2023-04-05T22:31:01.565Z,8.63
2023-04-05T22:33:30.081Z,8.03
2023-04-05T22:35:58.738Z,8.83
2023-04-05T22:38:29.312Z,8.47
2023-04-05T22:40:58.015Z,8.97
2023-04-05T22:43:26.234Z,9.53
2023-04-05T22:45:56.242Z,9.93
2023-04-05T22:48:24.665Z,9.77
2023-04-05T22:50:53.394Z,10.40
2023-04-05T22:53:21.862Z,9.67
2023-04-05T22:55:50.343Z,8.33
2023-04-05T22:58:19.675Z,9.73
2023-04-05T23:00:48.523Z,9.73
2023-04-05T23:03:18.110Z,9.50
2023-04-05T23:05:46.838Z,9.57
2023-04-05T23:08:15.107Z,10.17
2023-04-05T23:10:43.874Z,11.20
2023-04-05T23:13:12.255Z,12.77
2023-04-05T23:15:40.996Z,13.50
2023-04-05T23:18:09.585Z,13.50
2023-04-05T23:20:39.541Z,11.17
2023-04-05T23:23:07.910Z,12.47
2023-04-05T23:25:36.668Z,16.13
2023-04-05T23:28:05.221Z,16.63
2023-04-05T23:30:33.762Z,14.43
2023-04-05T23:33:02.171Z,12.03
2023-04-05T23:35:31.289Z,13.97
2023-04-05T23:38:01.281Z,13.90
2023-04-05T23:40:29.903Z,12.00
2023-04-05T23:42:58.358Z,11.53
2023-04-05T23:45:27.048Z,12.73
2023-04-05T23:47:55.711Z,12.30
2023-04-05T23:50:24.479Z,12.07
2023-04-05T23:52:52.708Z,12.57
2023-04-05T23:55:22.760Z,12.50
2023-04-05T23:57:52.165Z,11.53
